SBOSBO GCM / MWCR
Speedbird OnlineSpeedbird Online GCM / MWCR

Owen Roberts International Airport
02:31 26.3°C

Location Georgetown, Cayman Islands
Latitude: 19.292800903299998
Longitude: -81.3576965332
Web Wikipedia
Altitude 2 Meter / 8 Feet
Distance 7,760 KM / 4,822 Miles
from London.
Time Zone UTC -5 hours (America/Cayman)
Codes IATA: GCM
ICAO: MWCR
Currency £1 equals KYD 0.94
Runways
RunwayLength (m)Surface
082140Asphalt
262140Asphalt
Radio
TypeDescriptionFrequency
A/DGRAND CAYMAN APP120.2
ATISATIS132.35
CNTRKINGSTON CON128.1
GNDGND121.9
TWRTWR118
Live ATC
METAR MWCR 060300Z 03006KT 9999 FEW018 BKN050 29/24 Q1014
TAF TAF MWCR 052300Z 0600/0624 03007KT 9999 FEW016 BKN035
Weather As Of 06 Oct 2022 02:31
Description Scattered clouds
Wind 5 km/h from North-East (60°)
Cloud Cover 48%
Precipitation Rain: none, Snow: none
Sunrise 06:17
Sunset 18:09
Rotations During the last 90 days there were
49 flights from NAS
46 flights to NAS


© 2017-2022 Speedbird Online